sensor_id;sensor_type;location;lat;lon;timestamp;P1;durP1;ratioP1;P2;durP2;ratioP2
14167;SDS011;7163;50.626;12.922;2023-03-04T00:04:42;51.73;;;19.00;;
14167;SDS011;7163;50.626;12.922;2023-03-04T00:09:43;47.20;;;18.83;;
14167;SDS011;7163;50.626;12.922;2023-03-04T00:14:44;66.73;;;20.97;;
14167;SDS011;7163;50.626;12.922;2023-03-04T00:19:44;46.87;;;18.97;;
14167;SDS011;7163;50.626;12.922;2023-03-04T00:24:45;50.50;;;19.67;;
14167;SDS011;7163;50.626;12.922;2023-03-04T00:29:45;48.27;;;19.70;;
14167;SDS011;7163;50.626;12.922;2023-03-04T00:34:46;50.27;;;20.47;;
14167;SDS011;7163;50.626;12.922;2023-03-04T00:39:46;44.17;;;19.13;;
14167;SDS011;7163;50.626;12.922;2023-03-04T00:44:47;39.20;;;17.87;;
14167;SDS011;7163;50.626;12.922;2023-03-04T00:49:48;42.00;;;17.70;;
14167;SDS011;7163;50.626;12.922;2023-03-04T00:54:49;37.10;;;17.60;;
14167;SDS011;7163;50.626;12.922;2023-03-04T00:59:49;39.90;;;17.07;;
14167;SDS011;7163;50.626;12.922;2023-03-04T01:04:59;36.67;;;17.70;;
14167;SDS011;7163;50.626;12.922;2023-03-04T01:10:00;44.67;;;17.93;;
14167;SDS011;7163;50.626;12.922;2023-03-04T01:15:01;49.40;;;17.30;;
14167;SDS011;7163;50.626;12.922;2023-03-04T01:20:02;50.67;;;18.07;;
14167;SDS011;7163;50.626;12.922;2023-03-04T01:25:03;48.97;;;18.30;;
14167;SDS011;7163;50.626;12.922;2023-03-04T01:30:05;50.20;;;19.97;;
14167;SDS011;7163;50.626;12.922;2023-03-04T01:35:05;50.27;;;19.73;;
14167;SDS011;7163;50.626;12.922;2023-03-04T01:40:07;44.87;;;18.47;;
14167;SDS011;7163;50.626;12.922;2023-03-04T01:45:10;43.00;;;18.37;;
14167;SDS011;7163;50.626;12.922;2023-03-04T01:50:20;42.10;;;17.23;;
14167;SDS011;7163;50.626;12.922;2023-03-04T01:55:23;40.17;;;17.47;;
14167;SDS011;7163;50.626;12.922;2023-03-04T02:00:30;43.77;;;18.07;;
14167;SDS011;7163;50.626;12.922;2023-03-04T02:05:32;43.93;;;18.13;;
14167;SDS011;7163;50.626;12.922;2023-03-04T02:10:35;44.67;;;17.30;;
14167;SDS011;7163;50.626;12.922;2023-03-04T02:15:35;38.60;;;17.23;;
14167;SDS011;7163;50.626;12.922;2023-03-04T02:20:51;41.10;;;17.03;;
14167;SDS011;7163;50.626;12.922;2023-03-04T02:26:18;35.53;;;16.40;;
14167;SDS011;7163;50.626;12.922;2023-03-04T02:31:24;36.60;;;15.63;;
14167;SDS011;7163;50.626;12.922;2023-03-04T02:36:35;70.60;;;17.80;;
14167;SDS011;7163;50.626;12.922;2023-03-04T02:41:35;42.00;;;16.70;;
14167;SDS011;7163;50.626;12.922;2023-03-04T02:46:36;36.60;;;16.53;;
14167;SDS011;7163;50.626;12.922;2023-03-04T02:51:36;32.93;;;15.17;;
14167;SDS011;7163;50.626;12.922;2023-03-04T02:56:37;39.07;;;14.23;;
14167;SDS011;7163;50.626;12.922;2023-03-04T03:01:38;41.83;;;14.33;;
14167;SDS011;7163;50.626;12.922;2023-03-04T03:06:38;34.17;;;13.57;;
14167;SDS011;7163;50.626;12.922;2023-03-04T03:11:39;31.77;;;14.07;;
14167;SDS011;7163;50.626;12.922;2023-03-04T03:16:39;26.63;;;13.17;;
14167;SDS011;7163;50.626;12.922;2023-03-04T03:21:40;32.90;;;12.93;;
14167;SDS011;7163;50.626;12.922;2023-03-04T03:26:40;37.20;;;13.17;;
14167;SDS011;7163;50.626;12.922;2023-03-04T03:31:41;34.73;;;13.70;;
14167;SDS011;7163;50.626;12.922;2023-03-04T03:36:41;40.87;;;13.47;;
14167;SDS011;7163;50.626;12.922;2023-03-04T03:41:42;33.67;;;13.77;;
14167;SDS011;7163;50.626;12.922;2023-03-04T03:46:42;38.47;;;14.30;;
14167;SDS011;7163;50.626;12.922;2023-03-04T03:51:42;33.57;;;16.70;;
14167;SDS011;7163;50.626;12.922;2023-03-04T03:56:43;34.50;;;15.47;;
14167;SDS011;7163;50.626;12.922;2023-03-04T04:01:43;34.87;;;15.93;;
14167;SDS011;7163;50.626;12.922;2023-03-04T04:06:44;40.03;;;17.80;;
14167;SDS011;7163;50.626;12.922;2023-03-04T04:11:44;45.20;;;19.17;;
14167;SDS011;7163;50.626;12.922;2023-03-04T04:16:45;39.33;;;18.37;;
14167;SDS011;7163;50.626;12.922;2023-03-04T04:21:45;49.63;;;20.83;;
14167;SDS011;7163;50.626;12.922;2023-03-04T04:26:46;45.47;;;19.70;;
14167;SDS011;7163;50.626;12.922;2023-03-04T04:31:46;49.17;;;19.60;;
14167;SDS011;7163;50.626;12.922;2023-03-04T04:36:47;46.30;;;19.10;;
14167;SDS011;7163;50.626;12.922;2023-03-04T04:41:47;49.03;;;19.07;;
14167;SDS011;7163;50.626;12.922;2023-03-04T04:46:48;43.63;;;19.77;;
14167;SDS011;7163;50.626;12.922;2023-03-04T04:51:49;54.00;;;20.87;;
14167;SDS011;7163;50.626;12.922;2023-03-04T04:56:49;47.87;;;21.70;;
14167;SDS011;7163;50.626;12.922;2023-03-04T05:01:49;47.37;;;22.33;;
14167;SDS011;7163;50.626;12.922;2023-03-04T05:06:50;43.13;;;19.63;;
14167;SDS011;7163;50.626;12.922;2023-03-04T05:11:50;48.13;;;22.63;;
14167;SDS011;7163;50.626;12.922;2023-03-04T05:16:50;46.87;;;22.17;;
14167;SDS011;7163;50.626;12.922;2023-03-04T05:21:52;48.00;;;22.13;;
14167;SDS011;7163;50.626;12.922;2023-03-04T05:26:52;49.83;;;22.63;;
14167;SDS011;7163;50.626;12.922;2023-03-04T05:31:53;40.70;;;20.63;;
14167;SDS011;7163;50.626;12.922;2023-03-04T05:36:53;48.87;;;20.80;;
14167;SDS011;7163;50.626;12.922;2023-03-04T05:41:54;50.97;;;22.37;;
14167;SDS011;7163;50.626;12.922;2023-03-04T05:46:54;40.30;;;20.50;;
14167;SDS011;7163;50.626;12.922;2023-03-04T05:51:55;44.70;;;21.47;;
14167;SDS011;7163;50.626;12.922;2023-03-04T05:56:55;46.23;;;22.90;;
14167;SDS011;7163;50.626;12.922;2023-03-04T06:01:55;39.77;;;21.10;;
14167;SDS011;7163;50.626;12.922;2023-03-04T06:06:56;72.20;;;27.90;;
14167;SDS011;7163;50.626;12.922;2023-03-04T06:11:57;46.77;;;21.63;;
14167;SDS011;7163;50.626;12.922;2023-03-04T06:16:57;42.07;;;19.67;;
14167;SDS011;7163;50.626;12.922;2023-03-04T06:21:58;46.03;;;22.23;;
14167;SDS011;7163;50.626;12.922;2023-03-04T06:26:59;38.17;;;20.77;;
14167;SDS011;7163;50.626;12.922;2023-03-04T06:31:59;38.30;;;19.13;;
14167;SDS011;7163;50.626;12.922;2023-03-04T06:36:59;43.83;;;20.17;;
14167;SDS011;7163;50.626;12.922;2023-03-04T06:42:00;43.93;;;22.67;;
14167;SDS011;7163;50.626;12.922;2023-03-04T06:47:00;45.33;;;21.17;;
14167;SDS011;7163;50.626;12.922;2023-03-04T06:52:01;43.27;;;20.63;;
14167;SDS011;7163;50.626;12.922;2023-03-04T06:57:01;91.50;;;37.70;;
14167;SDS011;7163;50.626;12.922;2023-03-04T07:02:01;79.63;;;32.97;;
14167;SDS011;7163;50.626;12.922;2023-03-04T07:07:02;39.40;;;19.07;;
14167;SDS011;7163;50.626;12.922;2023-03-04T07:12:05;38.23;;;18.40;;
14167;SDS011;7163;50.626;12.922;2023-03-04T07:17:06;35.23;;;16.37;;
14167;SDS011;7163;50.626;12.922;2023-03-04T07:22:07;31.47;;;15.97;;
14167;SDS011;7163;50.626;12.922;2023-03-04T07:27:07;52.57;;;22.17;;
14167;SDS011;7163;50.626;12.922;2023-03-04T07:32:09;37.33;;;17.07;;
14167;SDS011;7163;50.626;12.922;2023-03-04T07:37:10;41.00;;;20.80;;
14167;SDS011;7163;50.626;12.922;2023-03-04T07:42:10;47.70;;;18.47;;
14167;SDS011;7163;50.626;12.922;2023-03-04T07:47:11;35.83;;;17.23;;
14167;SDS011;7163;50.626;12.922;2023-03-04T07:52:11;34.57;;;16.00;;
14167;SDS011;7163;50.626;12.922;2023-03-04T07:57:13;36.10;;;16.20;;
14167;SDS011;7163;50.626;12.922;2023-03-04T08:02:17;37.00;;;16.73;;
14167;SDS011;7163;50.626;12.922;2023-03-04T08:07:17;30.50;;;15.87;;
14167;SDS011;7163;50.626;12.922;2023-03-04T08:12:17;31.37;;;14.43;;
14167;SDS011;7163;50.626;12.922;2023-03-04T08:17:24;32.00;;;15.57;;
14167;SDS011;7163;50.626;12.922;2023-03-04T08:22:24;32.53;;;14.83;;
14167;SDS011;7163;50.626;12.922;2023-03-04T08:27:25;36.70;;;15.30;;
14167;SDS011;7163;50.626;12.922;2023-03-04T08:32:25;31.50;;;15.23;;
14167;SDS011;7163;50.626;12.922;2023-03-04T08:37:28;33.07;;;13.53;;
14167;SDS011;7163;50.626;12.922;2023-03-04T08:42:29;29.27;;;12.97;;
14167;SDS011;7163;50.626;12.922;2023-03-04T08:47:29;30.53;;;13.00;;
14167;SDS011;7163;50.626;12.922;2023-03-04T08:52:33;44.83;;;16.37;;
14167;SDS011;7163;50.626;12.922;2023-03-04T08:57:33;26.97;;;12.70;;
14167;SDS011;7163;50.626;12.922;2023-03-04T09:02:34;26.23;;;12.03;;
14167;SDS011;7163;50.626;12.922;2023-03-04T09:07:37;26.73;;;12.03;;
14167;SDS011;7163;50.626;12.922;2023-03-04T09:12:37;23.57;;;11.27;;
14167;SDS011;7163;50.626;12.922;2023-03-04T09:17:38;25.93;;;10.77;;
14167;SDS011;7163;50.626;12.922;2023-03-04T09:22:39;28.53;;;10.77;;
14167;SDS011;7163;50.626;12.922;2023-03-04T09:27:41;22.90;;;11.30;;
14167;SDS011;7163;50.626;12.922;2023-03-04T09:32:41;26.30;;;10.47;;
14167;SDS011;7163;50.626;12.922;2023-03-04T09:37:42;22.67;;;9.60;;
14167;SDS011;7163;50.626;12.922;2023-03-04T09:42:49;19.87;;;9.30;;
14167;SDS011;7163;50.626;12.922;2023-03-04T09:47:53;27.57;;;8.63;;
14167;SDS011;7163;50.626;12.922;2023-03-04T09:53:01;17.50;;;7.33;;
14167;SDS011;7163;50.626;12.922;2023-03-04T09:58:20;52.50;;;29.07;;
14167;SDS011;7163;50.626;12.922;2023-03-04T10:03:44;17.97;;;7.43;;
14167;SDS011;7163;50.626;12.922;2023-03-04T10:08:55;13.83;;;6.47;;
14167;SDS011;7163;50.626;12.922;2023-03-04T10:24:15;11.90;;;5.40;;
14167;SDS011;7163;50.626;12.922;2023-03-04T10:29:18;13.27;;;6.40;;
14167;SDS011;7163;50.626;12.922;2023-03-04T10:34:20;13.37;;;6.67;;
14167;SDS011;7163;50.626;12.922;2023-03-04T10:39:25;20.23;;;6.80;;
14167;SDS011;7163;50.626;12.922;2023-03-04T10:44:36;12.43;;;6.57;;
14167;SDS011;7163;50.626;12.922;2023-03-04T10:49:52;13.37;;;6.57;;
14167;SDS011;7163;50.626;12.922;2023-03-04T10:55:01;14.67;;;6.40;;
14167;SDS011;7163;50.626;12.922;2023-03-04T11:00:19;12.50;;;6.27;;
14167;SDS011;7163;50.626;12.922;2023-03-04T11:05:23;13.50;;;6.43;;
14167;SDS011;7163;50.626;12.922;2023-03-04T11:15:56;13.53;;;7.10;;
14167;SDS011;7163;50.626;12.922;2023-03-04T11:20:59;15.47;;;8.10;;
14167;SDS011;7163;50.626;12.922;2023-03-04T11:26:01;21.43;;;7.30;;
14167;SDS011;7163;50.626;12.922;2023-03-04T11:31:04;12.27;;;6.00;;
14167;SDS011;7163;50.626;12.922;2023-03-04T11:41:43;17.77;;;6.17;;
14167;SDS011;7163;50.626;12.922;2023-03-04T12:08:30;12.17;;;5.30;;
14167;SDS011;7163;50.626;12.922;2023-03-04T12:13:45;12.40;;;5.70;;
14167;SDS011;7163;50.626;12.922;2023-03-04T12:19:02;10.30;;;5.47;;
14167;SDS011;7163;50.626;12.922;2023-03-04T12:35:22;12.77;;;6.37;;
14167;SDS011;7163;50.626;12.922;2023-03-04T12:40:42;11.30;;;5.10;;
14167;SDS011;7163;50.626;12.922;2023-03-04T12:51:24;10.87;;;4.73;;
14167;SDS011;7163;50.626;12.922;2023-03-04T13:01:58;12.40;;;4.93;;
14167;SDS011;7163;50.626;12.922;2023-03-04T13:12:54;11.73;;;4.10;;
14167;SDS011;7163;50.626;12.922;2023-03-04T13:23:34;8.90;;;3.93;;
14167;SDS011;7163;50.626;12.922;2023-03-04T13:28:38;10.73;;;4.07;;
14167;SDS011;7163;50.626;12.922;2023-03-04T13:33:43;8.63;;;4.20;;
14167;SDS011;7163;50.626;12.922;2023-03-04T13:38:56;7.53;;;4.37;;
14167;SDS011;7163;50.626;12.922;2023-03-04T13:44:33;7.60;;;4.23;;
14167;SDS011;7163;50.626;12.922;2023-03-04T13:49:35;12.93;;;4.43;;
14167;SDS011;7163;50.626;12.922;2023-03-04T13:54:35;9.37;;;4.10;;
14167;SDS011;7163;50.626;12.922;2023-03-04T13:59:43;9.00;;;4.47;;
14167;SDS011;7163;50.626;12.922;2023-03-04T14:04:50;9.93;;;3.83;;
14167;SDS011;7163;50.626;12.922;2023-03-04T14:09:58;9.43;;;4.93;;
14167;SDS011;7163;50.626;12.922;2023-03-04T14:20:28;9.27;;;4.00;;
14167;SDS011;7163;50.626;12.922;2023-03-04T14:25:30;7.03;;;4.50;;
14167;SDS011;7163;50.626;12.922;2023-03-04T14:30:32;11.13;;;4.37;;
14167;SDS011;7163;50.626;12.922;2023-03-04T14:35:34;8.83;;;3.90;;
14167;SDS011;7163;50.626;12.922;2023-03-04T14:40:41;7.57;;;4.23;;
14167;SDS011;7163;50.626;12.922;2023-03-04T14:45:44;8.67;;;3.70;;
14167;SDS011;7163;50.626;12.922;2023-03-04T14:50:49;9.50;;;3.60;;
14167;SDS011;7163;50.626;12.922;2023-03-04T14:56:08;6.07;;;3.60;;
14167;SDS011;7163;50.626;12.922;2023-03-04T15:01:16;8.77;;;3.90;;
14167;SDS011;7163;50.626;12.922;2023-03-04T15:06:26;7.43;;;3.67;;
14167;SDS011;7163;50.626;12.922;2023-03-04T15:11:30;12.23;;;4.43;;
14167;SDS011;7163;50.626;12.922;2023-03-04T15:16:51;10.57;;;5.17;;
14167;SDS011;7163;50.626;12.922;2023-03-04T15:22:02;7.37;;;4.07;;
14167;SDS011;7163;50.626;12.922;2023-03-04T15:27:07;14.70;;;5.70;;
14167;SDS011;7163;50.626;12.922;2023-03-04T15:32:10;8.57;;;4.27;;
14167;SDS011;7163;50.626;12.922;2023-03-04T15:37:12;7.73;;;3.60;;
14167;SDS011;7163;50.626;12.922;2023-03-04T15:42:19;8.00;;;4.13;;
14167;SDS011;7163;50.626;12.922;2023-03-04T15:47:19;11.87;;;4.97;;
14167;SDS011;7163;50.626;12.922;2023-03-04T15:52:20;7.87;;;5.00;;
14167;SDS011;7163;50.626;12.922;2023-03-04T15:57:24;7.17;;;4.37;;
14167;SDS011;7163;50.626;12.922;2023-03-04T16:02:26;7.73;;;4.57;;
14167;SDS011;7163;50.626;12.922;2023-03-04T16:07:29;6.87;;;3.90;;
14167;SDS011;7163;50.626;12.922;2023-03-04T16:12:30;9.83;;;4.30;;
14167;SDS011;7163;50.626;12.922;2023-03-04T16:17:31;6.83;;;4.50;;
14167;SDS011;7163;50.626;12.922;2023-03-04T16:22:31;9.73;;;4.53;;
14167;SDS011;7163;50.626;12.922;2023-03-04T16:27:32;7.23;;;5.17;;
14167;SDS011;7163;50.626;12.922;2023-03-04T16:32:32;8.87;;;5.20;;
14167;SDS011;7163;50.626;12.922;2023-03-04T16:37:33;12.57;;;6.57;;
14167;SDS011;7163;50.626;12.922;2023-03-04T16:42:33;19.63;;;10.47;;
14167;SDS011;7163;50.626;12.922;2023-03-04T16:47:34;21.10;;;10.40;;
14167;SDS011;7163;50.626;12.922;2023-03-04T16:52:35;19.97;;;13.20;;
14167;SDS011;7163;50.626;12.922;2023-03-04T16:57:35;15.17;;;9.10;;
14167;SDS011;7163;50.626;12.922;2023-03-04T17:02:36;15.60;;;8.73;;
14167;SDS011;7163;50.626;12.922;2023-03-04T17:07:37;24.63;;;12.60;;
14167;SDS011;7163;50.626;12.922;2023-03-04T17:12:37;21.17;;;10.53;;
14167;SDS011;7163;50.626;12.922;2023-03-04T17:17:38;21.83;;;11.10;;
14167;SDS011;7163;50.626;12.922;2023-03-04T17:22:39;60.80;;;26.77;;
14167;SDS011;7163;50.626;12.922;2023-03-04T17:27:40;16.23;;;8.63;;
14167;SDS011;7163;50.626;12.922;2023-03-04T17:32:41;13.23;;;7.87;;
14167;SDS011;7163;50.626;12.922;2023-03-04T17:37:41;26.57;;;13.47;;
14167;SDS011;7163;50.626;12.922;2023-03-04T17:42:42;15.90;;;9.23;;
14167;SDS011;7163;50.626;12.922;2023-03-04T17:47:42;15.90;;;8.50;;
14167;SDS011;7163;50.626;12.922;2023-03-04T17:52:43;15.77;;;9.43;;
14167;SDS011;7163;50.626;12.922;2023-03-04T17:57:43;29.20;;;17.00;;
14167;SDS011;7163;50.626;12.922;2023-03-04T18:02:43;32.20;;;19.33;;
14167;SDS011;7163;50.626;12.922;2023-03-04T18:07:44;25.03;;;15.43;;
14167;SDS011;7163;50.626;12.922;2023-03-04T18:12:44;23.77;;;12.57;;
14167;SDS011;7163;50.626;12.922;2023-03-04T18:17:46;31.13;;;19.23;;
14167;SDS011;7163;50.626;12.922;2023-03-04T18:22:47;17.77;;;11.63;;
14167;SDS011;7163;50.626;12.922;2023-03-04T18:27:47;26.97;;;14.67;;
14167;SDS011;7163;50.626;12.922;2023-03-04T18:32:48;33.53;;;16.60;;
14167;SDS011;7163;50.626;12.922;2023-03-04T18:37:48;34.07;;;18.97;;
14167;SDS011;7163;50.626;12.922;2023-03-04T18:42:49;47.53;;;22.67;;
14167;SDS011;7163;50.626;12.922;2023-03-04T18:47:50;44.40;;;23.67;;
14167;SDS011;7163;50.626;12.922;2023-03-04T18:52:52;50.60;;;26.40;;
14167;SDS011;7163;50.626;12.922;2023-03-04T18:57:53;47.00;;;24.90;;
14167;SDS011;7163;50.626;12.922;2023-03-04T19:02:58;43.57;;;21.47;;
14167;SDS011;7163;50.626;12.922;2023-03-04T19:08:00;46.40;;;22.13;;
14167;SDS011;7163;50.626;12.922;2023-03-04T19:13:01;38.57;;;20.30;;
14167;SDS011;7163;50.626;12.922;2023-03-04T19:18:02;39.27;;;20.60;;
14167;SDS011;7163;50.626;12.922;2023-03-04T19:23:04;40.10;;;21.47;;
14167;SDS011;7163;50.626;12.922;2023-03-04T19:28:06;45.63;;;21.97;;
14167;SDS011;7163;50.626;12.922;2023-03-04T19:33:06;37.77;;;20.37;;
14167;SDS011;7163;50.626;12.922;2023-03-04T19:38:07;35.23;;;18.93;;
14167;SDS011;7163;50.626;12.922;2023-03-04T19:43:08;37.67;;;21.67;;
14167;SDS011;7163;50.626;12.922;2023-03-04T19:48:08;43.93;;;23.77;;
14167;SDS011;7163;50.626;12.922;2023-03-04T19:53:08;44.77;;;22.43;;
14167;SDS011;7163;50.626;12.922;2023-03-04T19:58:10;40.17;;;21.60;;
14167;SDS011;7163;50.626;12.922;2023-03-04T20:03:11;34.17;;;19.30;;
14167;SDS011;7163;50.626;12.922;2023-03-04T20:08:12;40.70;;;20.97;;
14167;SDS011;7163;50.626;12.922;2023-03-04T20:13:12;47.17;;;22.50;;
14167;SDS011;7163;50.626;12.922;2023-03-04T20:18:13;47.43;;;22.27;;
14167;SDS011;7163;50.626;12.922;2023-03-04T20:23:13;43.20;;;20.50;;
14167;SDS011;7163;50.626;12.922;2023-03-04T20:28:19;39.00;;;21.23;;
14167;SDS011;7163;50.626;12.922;2023-03-04T20:33:19;41.87;;;21.13;;
14167;SDS011;7163;50.626;12.922;2023-03-04T20:38:19;42.20;;;21.90;;
14167;SDS011;7163;50.626;12.922;2023-03-04T20:43:20;37.20;;;19.23;;
14167;SDS011;7163;50.626;12.922;2023-03-04T20:48:22;34.20;;;17.93;;
14167;SDS011;7163;50.626;12.922;2023-03-04T20:53:23;69.00;;;30.03;;
14167;SDS011;7163;50.626;12.922;2023-03-04T20:58:23;27.10;;;14.07;;
14167;SDS011;7163;50.626;12.922;2023-03-04T21:03:23;29.57;;;16.17;;
14167;SDS011;7163;50.626;12.922;2023-03-04T21:08:24;30.23;;;15.53;;
14167;SDS011;7163;50.626;12.922;2023-03-04T21:13:24;24.00;;;14.60;;
14167;SDS011;7163;50.626;12.922;2023-03-04T21:18:29;51.47;;;22.00;;
14167;SDS011;7163;50.626;12.922;2023-03-04T21:23:30;45.60;;;24.00;;
14167;SDS011;7163;50.626;12.922;2023-03-04T21:28:30;58.40;;;28.47;;
14167;SDS011;7163;50.626;12.922;2023-03-04T21:33:32;45.97;;;22.17;;
14167;SDS011;7163;50.626;12.922;2023-03-04T21:38:35;43.33;;;20.43;;
14167;SDS011;7163;50.626;12.922;2023-03-04T21:43:36;40.43;;;22.07;;
14167;SDS011;7163;50.626;12.922;2023-03-04T21:48:36;43.77;;;22.13;;
14167;SDS011;7163;50.626;12.922;2023-03-04T21:53:37;47.80;;;20.90;;
14167;SDS011;7163;50.626;12.922;2023-03-04T21:58:37;42.70;;;21.63;;
14167;SDS011;7163;50.626;12.922;2023-03-04T22:03:41;39.60;;;17.73;;
14167;SDS011;7163;50.626;12.922;2023-03-04T22:08:41;36.80;;;15.13;;
14167;SDS011;7163;50.626;12.922;2023-03-04T22:13:42;32.03;;;14.53;;
14167;SDS011;7163;50.626;12.922;2023-03-04T22:18:42;26.20;;;12.60;;
14167;SDS011;7163;50.626;12.922;2023-03-04T22:23:43;27.13;;;13.93;;
14167;SDS011;7163;50.626;12.922;2023-03-04T22:28:43;27.10;;;13.53;;
14167;SDS011;7163;50.626;12.922;2023-03-04T22:33:44;18.53;;;9.73;;
14167;SDS011;7163;50.626;12.922;2023-03-04T22:38:44;21.47;;;10.40;;
14167;SDS011;7163;50.626;12.922;2023-03-04T22:43:45;20.07;;;9.73;;
14167;SDS011;7163;50.626;12.922;2023-03-04T22:48:46;16.27;;;8.77;;
14167;SDS011;7163;50.626;12.922;2023-03-04T22:53:47;20.53;;;8.30;;
14167;SDS011;7163;50.626;12.922;2023-03-04T22:58:49;22.03;;;9.13;;
14167;SDS011;7163;50.626;12.922;2023-03-04T23:03:49;29.23;;;10.53;;
14167;SDS011;7163;50.626;12.922;2023-03-04T23:08:50;22.50;;;9.80;;
14167;SDS011;7163;50.626;12.922;2023-03-04T23:13:51;21.60;;;8.53;;
14167;SDS011;7163;50.626;12.922;2023-03-04T23:18:52;26.37;;;9.20;;
14167;SDS011;7163;50.626;12.922;2023-03-04T23:23:52;22.33;;;9.07;;
14167;SDS011;7163;50.626;12.922;2023-03-04T23:28:53;19.37;;;8.23;;
14167;SDS011;7163;50.626;12.922;2023-03-04T23:33:56;17.53;;;8.50;;
14167;SDS011;7163;50.626;12.922;2023-03-04T23:38:57;23.63;;;7.77;;
14167;SDS011;7163;50.626;12.922;2023-03-04T23:43:57;18.33;;;7.17;;
14167;SDS011;7163;50.626;12.922;2023-03-04T23:48:58;17.53;;;6.57;;
14167;SDS011;7163;50.626;12.922;2023-03-04T23:53:59;22.20;;;7.70;;
14167;SDS011;7163;50.626;12.922;2023-03-04T23:58:59;20.67;;;7.20;;
